createdAt,value
2017-09-18T00:01:53.077Z,98853.88
2017-09-18T00:04:19.292Z,98863.45
2017-09-18T00:06:45.529Z,98863.16
2017-09-18T00:09:11.757Z,98864.52
2017-09-18T00:11:38.004Z,98865.95
2017-09-18T00:14:04.234Z,98857.89
2017-09-18T00:16:30.451Z,98865.03
2017-09-18T00:18:56.674Z,98868.62
2017-09-18T00:21:22.908Z,98879.13
2017-09-18T00:23:49.147Z,98884.28
2017-09-18T00:26:15.366Z,98890.52
2017-09-18T00:28:41.543Z,98891.02
2017-09-18T00:31:07.709Z,98889.03
2017-09-18T00:33:33.947Z,98884.20
2017-09-18T00:36:00.191Z,98895.28
2017-09-18T00:38:26.441Z,98896.20
2017-09-18T00:40:52.758Z,98897.61
2017-09-18T00:43:18.981Z,98907.00
2017-09-18T00:45:45.192Z,98914.47
2017-09-18T00:48:11.426Z,98913.37
2017-09-18T00:50:37.670Z,98914.51
2017-09-18T00:53:03.895Z,98915.27
2017-09-18T00:55:30.118Z,98915.45
2017-09-18T00:57:56.357Z,98912.49
2017-09-18T01:00:22.570Z,98914.77
2017-09-18T01:02:48.753Z,98926.53
2017-09-18T01:05:15.052Z,98923.09
2017-09-18T01:07:41.266Z,98929.47
2017-09-18T01:10:07.503Z,98924.86
2017-09-18T01:12:33.730Z,98931.72
2017-09-18T01:14:59.958Z,98929.70
2017-09-18T01:17:26.189Z,98933.14
2017-09-18T01:19:52.422Z,98940.83
2017-09-18T01:22:18.645Z,98943.13
2017-09-18T01:24:44.885Z,98945.19
2017-09-18T01:27:11.119Z,98943.91
2017-09-18T01:29:37.333Z,98935.02
2017-09-18T01:32:03.567Z,98929.66
2017-09-18T01:34:29.788Z,98941.48
2017-09-18T01:36:55.970Z,98945.50
2017-09-18T01:39:22.241Z,98944.91
2017-09-18T01:41:48.482Z,98943.04
2017-09-18T01:44:14.702Z,98954.90
2017-09-18T01:46:40.946Z,98956.80
2017-09-18T01:49:07.180Z,98962.59
2017-09-18T01:51:33.396Z,98967.31
2017-09-18T01:53:59.625Z,98965.66
2017-09-18T01:56:25.866Z,98976.52
2017-09-18T01:58:52.046Z,98977.67
2017-09-18T02:01:18.321Z,98976.23
2017-09-18T02:03:44.479Z,98974.59
2017-09-18T02:06:10.670Z,98974.66
2017-09-18T02:08:36.901Z,98971.66
2017-09-18T02:11:03.141Z,98972.22
2017-09-18T02:13:29.377Z,98978.74
2017-09-18T02:15:55.592Z,98979.16
2017-09-18T02:18:21.820Z,98982.64
2017-09-18T02:20:48.058Z,98992.92
2017-09-18T02:23:14.288Z,98993.30
2017-09-18T02:25:40.503Z,98997.54
2017-09-18T02:28:06.740Z,98995.28
2017-09-18T02:30:32.979Z,98993.86
2017-09-18T02:32:59.202Z,98995.12
2017-09-18T02:35:25.437Z,98994.94
2017-09-18T02:37:51.654Z,98996.66
2017-09-18T02:40:17.894Z,99006.86
2017-09-18T02:42:44.139Z,99012.45
2017-09-18T02:45:10.358Z,99010.63
2017-09-18T02:47:36.570Z,99017.48
2017-09-18T02:50:02.809Z,99021.70
2017-09-18T02:52:29.044Z,99020.48
2017-09-18T02:54:55.280Z,99020.84
2017-09-18T02:57:21.519Z,99023.59
2017-09-18T02:59:47.739Z,99020.41
2017-09-18T03:02:14.490Z,99027.77
2017-09-18T03:04:40.706Z,99019.02
2017-09-18T03:07:06.936Z,99026.00
2017-09-18T03:09:33.160Z,99026.39
2017-09-18T03:11:59.398Z,99033.95
2017-09-18T03:14:25.623Z,99037.17
2017-09-18T03:16:51.851Z,99027.72
2017-09-18T03:19:18.083Z,99028.51
2017-09-18T03:21:44.319Z,99021.62
2017-09-18T03:24:10.555Z,99021.98
2017-09-18T03:26:36.759Z,99029.16
2017-09-18T03:29:03.003Z,99031.16
2017-09-18T03:31:29.233Z,99030.60
2017-09-18T03:33:55.447Z,99037.23
2017-09-18T03:36:21.689Z,99046.80
2017-09-18T03:38:47.914Z,99047.77
2017-09-18T03:41:14.077Z,99054.50
2017-09-18T03:43:40.267Z,99057.70
2017-09-18T03:46:06.506Z,99057.89
2017-09-18T03:48:32.725Z,99063.11
2017-09-18T03:50:58.964Z,99064.68
2017-09-18T03:53:25.190Z,99071.17
2017-09-18T03:55:51.453Z,99070.27
2017-09-18T03:58:17.665Z,99065.50
2017-09-18T04:00:44.162Z,99076.10
2017-09-18T04:03:10.438Z,99070.33
2017-09-18T04:05:36.650Z,99074.77
2017-09-18T04:08:02.884Z,99079.75
2017-09-18T04:10:29.102Z,99077.80
2017-09-18T04:12:55.327Z,99089.05
2017-09-18T04:15:21.584Z,99085.81
2017-09-18T04:17:47.817Z,99087.41
2017-09-18T04:20:14.020Z,99083.66
2017-09-18T04:22:40.271Z,99093.22
2017-09-18T04:25:06.486Z,99090.02
2017-09-18T04:27:32.709Z,99099.15
2017-09-18T04:29:58.953Z,99097.92
2017-09-18T04:32:25.183Z,99105.50
2017-09-18T04:34:51.368Z,99095.97
2017-09-18T04:37:17.643Z,99099.64
2017-09-18T04:39:43.859Z,99099.70
2017-09-18T04:42:10.085Z,99096.59
2017-09-18T04:44:36.354Z,99096.05
2017-09-18T04:47:02.562Z,99104.69
2017-09-18T04:49:28.793Z,99109.85
2017-09-18T04:51:55.060Z,99110.19
2017-09-18T04:54:21.364Z,99108.59
2017-09-18T04:56:47.579Z,99104.61
2017-09-18T04:59:13.910Z,99103.06
2017-09-18T05:01:40.148Z,99105.36
2017-09-18T05:04:06.356Z,99109.42
2017-09-18T05:06:32.590Z,99114.58
2017-09-18T05:08:58.819Z,99111.73
2017-09-18T05:11:25.058Z,99118.34
2017-09-18T05:13:51.274Z,99111.14
2017-09-18T05:16:17.515Z,99111.61
2017-09-18T05:18:43.758Z,99112.67
2017-09-18T05:21:09.986Z,99115.41
2017-09-18T05:23:36.212Z,99115.94
2017-09-18T05:26:02.437Z,99118.08
2017-09-18T05:28:28.664Z,99112.65
2017-09-18T05:30:54.902Z,99112.67
2017-09-18T05:33:21.123Z,99112.33
2017-09-18T05:35:47.349Z,99116.04
2017-09-18T05:38:13.586Z,99114.05
2017-09-18T05:40:39.822Z,99114.88
2017-09-18T05:43:06.038Z,99107.52
2017-09-18T05:45:32.265Z,99112.00
2017-09-18T05:47:58.500Z,99116.73
2017-09-18T05:50:24.742Z,99109.46
2017-09-18T05:52:50.954Z,99119.66
2017-09-18T05:55:17.186Z,99123.41
2017-09-18T05:57:43.427Z,99122.83
2017-09-18T06:00:09.657Z,99124.95
2017-09-18T06:02:35.882Z,99119.16
2017-09-18T06:05:02.101Z,99125.21
2017-09-18T06:07:28.347Z,99115.84
2017-09-18T06:09:54.665Z,99122.91
2017-09-18T06:12:22.656Z,99116.14
2017-09-18T06:14:49.387Z,99110.34
2017-09-18T06:17:15.616Z,99113.20
2017-09-18T06:19:41.862Z,99112.51
2017-09-18T06:22:08.072Z,99115.51
2017-09-18T06:24:34.293Z,99122.13
2017-09-18T06:27:00.482Z,99115.22
2017-09-18T06:29:26.802Z,99118.89
2017-09-18T06:31:52.967Z,99113.03
2017-09-18T06:34:19.230Z,99119.45
2017-09-18T06:36:45.459Z,99112.16
2017-09-18T06:39:11.787Z,99115.08
2017-09-18T06:41:38.007Z,99109.63
2017-09-18T06:44:04.243Z,99112.98
2017-09-18T06:46:30.470Z,99102.19
2017-09-18T06:48:56.701Z,99113.06
2017-09-18T06:51:22.936Z,99109.91
2017-09-18T06:53:49.174Z,99112.00
2017-09-18T06:56:15.332Z,99111.88
2017-09-18T06:58:41.574Z,99112.36
2017-09-18T07:01:07.721Z,99110.32
2017-09-18T07:03:33.881Z,99114.80
2017-09-18T07:06:00.053Z,99113.77
2017-09-18T07:08:26.220Z,99110.14
2017-09-18T07:10:52.386Z,99112.09
2017-09-18T07:13:18.539Z,99103.47
2017-09-18T07:15:44.690Z,99114.92
2017-09-18T07:18:10.845Z,99109.69
2017-09-18T07:20:37.002Z,99113.28
2017-09-18T07:23:03.172Z,99106.73
2017-09-18T07:25:29.357Z,99108.83
2017-09-18T07:27:55.530Z,99108.27
2017-09-18T07:30:21.687Z,99104.59
2017-09-18T07:32:47.866Z,99103.06
2017-09-18T07:35:14.029Z,99103.53
2017-09-18T07:37:40.186Z,99103.74
2017-09-18T07:40:06.367Z,99096.71
2017-09-18T07:42:32.542Z,99097.31
2017-09-18T07:44:58.704Z,99083.02
2017-09-18T07:47:24.883Z,99091.66
2017-09-18T07:49:51.048Z,99092.01
2017-09-18T07:52:17.206Z,99095.73
2017-09-18T07:54:43.380Z,99089.33
2017-09-18T07:57:09.547Z,99086.84
2017-09-18T07:59:35.701Z,99075.99
2017-09-18T08:02:01.861Z,99084.22
2017-09-18T08:04:28.016Z,99074.33
2017-09-18T08:06:54.184Z,99075.55
2017-09-18T08:09:20.365Z,99071.39
2017-09-18T08:11:46.559Z,99073.20
2017-09-18T08:14:12.765Z,99070.19
2017-09-18T08:16:38.944Z,99061.56
2017-09-18T08:19:05.110Z,99061.83
2017-09-18T08:21:31.277Z,99061.80
2017-09-18T08:23:57.453Z,99067.30
2017-09-18T08:26:23.616Z,99064.16
2017-09-18T08:28:49.792Z,99062.34
2017-09-18T08:31:15.959Z,99055.97
2017-09-18T08:33:42.115Z,99055.97
2017-09-18T08:36:08.266Z,99056.75
2017-09-18T08:38:34.441Z,99054.11
2017-09-18T08:41:00.605Z,99055.31
2017-09-18T08:43:26.828Z,99051.77
2017-09-18T08:45:53.071Z,99042.82
2017-09-18T08:48:19.237Z,99041.61
2017-09-18T08:50:45.425Z,99040.66
2017-09-18T08:53:11.665Z,99045.35
2017-09-18T08:55:37.876Z,99041.23
2017-09-18T08:58:04.058Z,99039.95
2017-09-18T09:00:30.227Z,99044.18
2017-09-18T09:02:56.447Z,99048.75
2017-09-18T09:05:22.702Z,99047.58
2017-09-18T09:07:48.927Z,99040.34
2017-09-18T09:10:15.151Z,99035.50
2017-09-18T09:12:41.376Z,99025.84
2017-09-18T09:15:07.533Z,99026.03
2017-09-18T09:17:33.737Z,99029.11
2017-09-18T09:19:59.913Z,99027.20
2017-09-18T09:22:26.096Z,99031.39
2017-09-18T09:24:53.378Z,99023.63
2017-09-18T09:27:22.003Z,99018.77
2017-09-18T09:29:48.266Z,99021.20
2017-09-18T09:32:14.516Z,99020.86
2017-09-18T09:34:40.710Z,99023.67
2017-09-18T09:37:06.962Z,99022.39
2017-09-18T09:39:33.179Z,99017.42
2017-09-18T09:41:59.420Z,99019.24
2017-09-18T09:44:25.645Z,99015.11
2017-09-18T09:46:51.878Z,99017.57
2017-09-18T09:49:18.119Z,99027.25
2017-09-18T09:51:44.327Z,99011.51
2017-09-18T09:54:10.558Z,99015.42
2017-09-18T09:56:36.797Z,99011.02
2017-09-18T09:59:03.030Z,99008.37
2017-09-18T10:01:29.267Z,99009.11
2017-09-18T10:03:55.473Z,99011.31
2017-09-18T10:06:21.709Z,99010.42
2017-09-18T10:08:47.950Z,99008.57
2017-09-18T10:11:14.167Z,99009.20
2017-09-18T10:13:40.349Z,98996.94
2017-09-18T10:16:06.534Z,99000.88
2017-09-18T10:18:32.767Z,98996.76
2017-09-18T10:20:59.012Z,98988.58
2017-09-18T10:23:25.184Z,98996.30
2017-09-18T10:25:51.557Z,98993.64
2017-09-18T10:28:17.787Z,98995.95
2017-09-18T10:30:44.013Z,98985.72
2017-09-18T10:33:10.262Z,98982.55
2017-09-18T10:35:36.485Z,98987.72
2017-09-18T10:38:02.701Z,98979.81
2017-09-18T10:40:28.927Z,98982.78
2017-09-18T10:42:55.164Z,98984.16
2017-09-18T10:45:21.403Z,98980.70
2017-09-18T10:47:47.608Z,98984.08
2017-09-18T10:50:13.843Z,98978.28
2017-09-18T10:52:40.059Z,98978.77
2017-09-18T10:55:06.307Z,98969.56
2017-09-18T10:57:32.533Z,98963.09
2017-09-18T10:59:58.707Z,98960.36
2017-09-18T11:02:25.008Z,98964.64
2017-09-18T11:04:51.235Z,98964.55
2017-09-18T11:07:17.475Z,98959.22
2017-09-18T11:09:43.697Z,98962.02
2017-09-18T11:12:09.919Z,98955.95
2017-09-18T11:14:36.138Z,98955.66
2017-09-18T11:17:02.385Z,98942.73
2017-09-18T11:19:28.596Z,98948.88
2017-09-18T11:21:54.838Z,98951.11
2017-09-18T11:24:21.083Z,98940.63
2017-09-18T11:26:47.288Z,98941.92
2017-09-18T11:29:13.525Z,98947.88
2017-09-18T11:34:11.315Z,98933.81
2017-09-18T11:36:38.502Z,98935.69
2017-09-18T11:39:05.305Z,98932.45
2017-09-18T11:41:31.585Z,98928.19
2017-09-18T11:43:57.867Z,98930.66
2017-09-18T11:46:24.082Z,98924.95
2017-09-18T11:48:50.327Z,98918.36
2017-09-18T11:51:16.542Z,98915.27
2017-09-18T11:53:42.790Z,98911.81
2017-09-18T11:56:09.009Z,98913.72
2017-09-18T11:58:35.246Z,98916.09
2017-09-18T12:01:01.475Z,98905.56
2017-09-18T12:03:27.690Z,98904.95
2017-09-18T12:05:53.954Z,98897.28
2017-09-18T12:08:20.164Z,98893.45
2017-09-18T12:10:46.395Z,98882.53
2017-09-18T12:13:12.635Z,98886.02
2017-09-18T12:15:38.894Z,98879.25
2017-09-18T12:18:05.094Z,98880.05
2017-09-18T12:20:31.263Z,98877.03
2017-09-18T12:22:57.444Z,98880.22
2017-09-18T12:25:23.688Z,98875.78
2017-09-18T12:27:49.899Z,98865.58
2017-09-18T12:30:16.133Z,98866.18
2017-09-18T12:32:42.358Z,98868.92
2017-09-18T12:35:08.588Z,98862.62
2017-09-18T12:37:34.830Z,98859.91
2017-09-18T12:40:01.045Z,98856.73
2017-09-18T12:42:27.268Z,98858.80
2017-09-18T12:44:53.509Z,98851.05
2017-09-18T12:47:19.745Z,98846.77
2017-09-18T12:49:45.953Z,98850.22
2017-09-18T12:52:12.193Z,98846.77
2017-09-18T12:54:38.430Z,98848.05
2017-09-18T12:57:04.683Z,98850.33
2017-09-18T12:59:30.891Z,98853.86
2017-09-18T13:01:57.114Z,98847.80
2017-09-18T13:04:23.353Z,98851.08
2017-09-18T13:06:49.587Z,98848.42
2017-09-18T13:09:15.816Z,98839.78
2017-09-18T13:11:42.025Z,98833.21
2017-09-18T13:14:08.248Z,98835.33
2017-09-18T13:16:34.424Z,98827.50
2017-09-18T13:19:00.614Z,98825.87
2017-09-18T13:21:26.849Z,98824.73
2017-09-18T13:23:53.067Z,98816.09
2017-09-18T13:26:19.301Z,98823.08
2017-09-18T13:28:45.545Z,98818.45
2017-09-18T13:31:11.772Z,98819.20
2017-09-18T13:33:37.994Z,98811.14
2017-09-18T13:36:04.229Z,98819.84
2017-09-18T13:38:30.580Z,98821.74
2017-09-18T13:40:56.900Z,98814.11
2017-09-18T13:43:23.082Z,98810.71
2017-09-18T13:45:49.426Z,98809.23
2017-09-18T13:48:20.669Z,98808.69
2017-09-18T13:50:47.442Z,98813.36
2017-09-18T13:53:13.681Z,98812.31
2017-09-18T13:55:39.895Z,98812.19
2017-09-18T13:58:06.142Z,98810.11
2017-09-18T14:00:32.356Z,98816.14
2017-09-18T14:02:58.544Z,98817.59
2017-09-18T14:05:24.722Z,98814.43
2017-09-18T14:07:50.898Z,98809.98
2017-09-18T14:10:17.083Z,98804.64
2017-09-18T14:12:43.245Z,98806.08
2017-09-18T14:15:09.444Z,98800.65
2017-09-18T14:17:35.635Z,98804.27
2017-09-18T14:20:01.792Z,98803.38
2017-09-18T14:22:27.962Z,98801.16
2017-09-18T14:24:54.135Z,98803.02
2017-09-18T14:27:20.312Z,98804.63
2017-09-18T14:29:46.464Z,98805.50
2017-09-18T14:32:12.632Z,98801.92
2017-09-18T14:34:38.811Z,98800.40
2017-09-18T14:37:04.993Z,98805.95
2017-09-18T14:39:31.163Z,98804.19
2017-09-18T14:41:57.327Z,98804.39
2017-09-18T14:44:23.493Z,98793.55
2017-09-18T14:46:49.673Z,98802.47
2017-09-18T14:49:15.844Z,98799.08
2017-09-18T14:51:42.016Z,98803.66
2017-09-18T14:54:08.182Z,98801.62
2017-09-18T14:56:34.352Z,98796.30
2017-09-18T14:59:00.534Z,98794.58
2017-09-18T15:01:26.713Z,98794.44
2017-09-18T15:03:52.891Z,98792.14
2017-09-18T15:06:19.090Z,98798.11
2017-09-18T15:08:45.287Z,98795.08
2017-09-18T15:11:11.459Z,98793.57
2017-09-18T15:13:37.680Z,98786.83
2017-09-18T15:16:03.872Z,98790.77
2017-09-18T15:18:30.051Z,98790.55
2017-09-18T15:20:56.214Z,98793.14
2017-09-18T15:23:22.368Z,98786.77
2017-09-18T15:25:48.534Z,98793.66
2017-09-18T15:28:15.748Z,98792.08
2017-09-18T15:30:41.910Z,98785.95
2017-09-18T15:33:08.082Z,98786.95
2017-09-18T15:35:34.254Z,98789.92
2017-09-18T15:38:00.415Z,98786.42
2017-09-18T15:40:26.588Z,98788.67
2017-09-18T15:42:52.749Z,98792.38
2017-09-18T15:45:18.921Z,98787.09
2017-09-18T15:47:45.091Z,98791.88
2017-09-18T15:50:11.258Z,98789.50
2017-09-18T15:52:37.412Z,98789.36
2017-09-18T15:55:03.581Z,98792.09
2017-09-18T15:57:29.746Z,98791.70
2017-09-18T15:59:55.920Z,98791.91
2017-09-18T16:02:22.080Z,98795.38
2017-09-18T16:04:48.249Z,98796.27
2017-09-18T16:07:14.439Z,98792.73
2017-09-18T16:09:40.606Z,98790.55
2017-09-18T16:12:06.787Z,98791.58
2017-09-18T16:14:32.939Z,98800.20
2017-09-18T16:16:59.117Z,98798.07
2017-09-18T16:19:25.275Z,98801.97
2017-09-18T16:21:51.435Z,98795.77
2017-09-18T16:24:17.580Z,98800.91
2017-09-18T16:26:43.744Z,98805.95
2017-09-18T16:29:09.951Z,98798.04
2017-09-18T16:31:36.127Z,98802.48
2017-09-18T16:34:02.284Z,98811.34
2017-09-18T16:36:28.460Z,98809.73
2017-09-18T16:38:54.632Z,98815.81
2017-09-18T16:41:20.881Z,98816.16
2017-09-18T16:43:47.049Z,98816.00
2017-09-18T16:46:13.265Z,98825.79
2017-09-18T16:48:39.451Z,98824.23
2017-09-18T16:51:05.680Z,98818.91
2017-09-18T16:53:31.838Z,98816.54
2017-09-18T16:55:58.012Z,98820.91
2017-09-18T16:58:24.300Z,98827.26
2017-09-18T17:00:50.497Z,98823.88
2017-09-18T17:03:16.756Z,98832.78
2017-09-18T17:05:42.938Z,98835.65
2017-09-18T17:08:09.179Z,98836.78
2017-09-18T17:10:35.397Z,98840.43
2017-09-18T17:13:01.633Z,98845.11
2017-09-18T17:15:27.795Z,98850.64
2017-09-18T17:17:53.983Z,98848.72
2017-09-18T17:20:20.236Z,98849.94
2017-09-18T17:22:46.471Z,98854.59
2017-09-18T17:25:12.682Z,98851.23
2017-09-18T17:27:38.905Z,98856.27
2017-09-18T17:30:05.060Z,98862.43
2017-09-18T17:32:31.272Z,98862.55
2017-09-18T17:34:57.607Z,98863.55
2017-09-18T17:37:23.768Z,98867.45
2017-09-18T17:39:49.942Z,98872.75
2017-09-18T17:42:16.183Z,98878.86
2017-09-18T17:44:42.438Z,98881.98
2017-09-18T17:47:08.651Z,98875.75
2017-09-18T17:49:34.795Z,98886.19
2017-09-18T17:52:00.996Z,98895.20
2017-09-18T17:54:27.238Z,98896.92
2017-09-18T17:56:53.485Z,98900.61
2017-09-18T17:59:20.729Z,98901.83
2017-09-18T18:01:46.953Z,98904.72
2017-09-18T18:04:13.175Z,98908.25
2017-09-18T18:06:39.414Z,98904.75
2017-09-18T18:09:05.607Z,98906.94
2017-09-18T18:11:31.975Z,98903.40
2017-09-18T18:13:58.202Z,98906.25
2017-09-18T18:16:24.445Z,98916.00
2017-09-18T18:18:50.666Z,98920.36
2017-09-18T18:21:16.883Z,98915.36
2017-09-18T18:23:43.128Z,98917.31
2017-09-18T18:26:09.278Z,98926.37
2017-09-18T18:28:35.445Z,98927.97
2017-09-18T18:31:01.716Z,98919.36
2017-09-18T18:33:27.928Z,98918.97
2017-09-18T18:35:54.157Z,98921.45
2017-09-18T18:38:20.413Z,98931.95
2017-09-18T18:40:46.559Z,98934.34
2017-09-18T18:43:12.744Z,98935.34
2017-09-18T18:45:38.987Z,98933.77
2017-09-18T18:48:05.315Z,98931.63
2017-09-18T18:50:31.498Z,98935.91
2017-09-18T18:52:57.783Z,98934.33
2017-09-18T18:55:23.952Z,98938.42
2017-09-18T18:57:50.126Z,98936.23
2017-09-18T19:00:16.307Z,98937.92
2017-09-18T19:02:42.473Z,98940.13
2017-09-18T19:05:08.733Z,98937.36
2017-09-18T19:07:34.962Z,98938.52
2017-09-18T19:10:01.169Z,98945.34
2017-09-18T19:12:27.350Z,98945.44
2017-09-18T19:14:53.654Z,98938.30
2017-09-18T19:17:19.861Z,98940.79
2017-09-18T19:19:46.086Z,98938.89
2017-09-18T19:22:12.333Z,98937.95
2017-09-18T19:24:38.554Z,98937.14
2017-09-18T19:27:04.802Z,98940.50
2017-09-18T19:29:31.017Z,98940.44
2017-09-18T19:31:57.241Z,98937.95
2017-09-18T19:34:23.482Z,98937.76
2017-09-18T19:36:49.701Z,98937.11
2017-09-18T19:39:15.934Z,98943.33
2017-09-18T19:41:42.170Z,98950.56
2017-09-18T19:44:08.376Z,98951.03
2017-09-18T19:46:34.584Z,98955.71
2017-09-18T19:49:00.896Z,98954.97
2017-09-18T19:51:27.085Z,98958.44
2017-09-18T19:53:53.314Z,98952.03
2017-09-18T19:56:19.528Z,98954.00
2017-09-18T19:58:45.763Z,98958.91
2017-09-18T20:01:12.014Z,98954.08
2017-09-18T20:03:38.239Z,98945.81
2017-09-18T20:06:04.470Z,98949.69
2017-09-18T20:08:30.689Z,98942.90
2017-09-18T20:10:56.931Z,98947.48
2017-09-18T20:13:23.166Z,98953.81
2017-09-18T20:15:49.382Z,98961.04
2017-09-18T20:18:15.604Z,98961.10
2017-09-18T20:20:41.906Z,98954.13
2017-09-18T20:23:08.173Z,98956.72
2017-09-18T20:25:34.402Z,98954.23
2017-09-18T20:28:00.628Z,98945.39
2017-09-18T20:30:26.867Z,98951.42
2017-09-18T20:32:53.091Z,98948.34
2017-09-18T20:35:19.308Z,98958.36
2017-09-18T20:37:45.544Z,98953.02
2017-09-18T20:40:12.602Z,98944.70
2017-09-18T20:42:38.823Z,98948.52
2017-09-18T20:45:05.059Z,98948.59
2017-09-18T20:47:31.324Z,98948.50
2017-09-18T20:49:57.526Z,98946.08
2017-09-18T20:52:23.746Z,98952.08
2017-09-18T20:54:49.977Z,98953.59
2017-09-18T20:57:16.213Z,98957.34
2017-09-18T20:59:42.450Z,98952.38
2017-09-18T21:02:08.665Z,98966.52
2017-09-18T21:04:34.892Z,98966.39
2017-09-18T21:07:01.120Z,98969.48
2017-09-18T21:09:27.343Z,98964.27
2017-09-18T21:11:53.572Z,98962.80
2017-09-18T21:14:19.810Z,98961.30
2017-09-18T21:16:46.045Z,98957.46
2017-09-18T21:19:12.277Z,98957.42
2017-09-18T21:21:38.493Z,98965.61
2017-09-18T21:24:04.718Z,98970.50
2017-09-18T21:26:30.959Z,98968.25
2017-09-18T21:28:57.186Z,98977.02
2017-09-18T21:31:23.420Z,98974.20
2017-09-18T21:33:49.657Z,98973.32
2017-09-18T21:36:15.866Z,98971.31
2017-09-18T21:38:42.135Z,98978.78
2017-09-18T21:41:08.349Z,98975.45
2017-09-18T21:43:34.582Z,98972.61
2017-09-18T21:46:00.834Z,98967.96
2017-09-18T21:48:27.030Z,98966.06
2017-09-18T21:50:53.255Z,98971.64
2017-09-18T21:53:19.501Z,98975.73
2017-09-18T21:55:45.721Z,98970.92
2017-09-18T21:58:11.950Z,98967.95
2017-09-18T22:00:38.193Z,98969.30
2017-09-18T22:03:04.408Z,98969.66
2017-09-18T22:05:30.644Z,98969.04
2017-09-18T22:07:56.878Z,98964.92
2017-09-18T22:10:23.098Z,98965.89
2017-09-18T22:12:49.347Z,98969.41
2017-09-18T22:15:15.558Z,98971.05
2017-09-18T22:17:41.731Z,98967.91
2017-09-18T22:20:08.016Z,98976.06
2017-09-18T22:22:34.256Z,98964.87
2017-09-18T22:25:00.476Z,98964.61
2017-09-18T22:27:26.708Z,98965.95
2017-09-18T22:29:52.940Z,98962.28
2017-09-18T22:32:19.162Z,98971.06
2017-09-18T22:34:45.409Z,98960.03
2017-09-18T22:37:11.625Z,98959.70
2017-09-18T22:39:37.857Z,98963.34
2017-09-18T22:42:04.089Z,98971.66
2017-09-18T22:44:30.318Z,98971.02
2017-09-18T22:46:56.547Z,98968.50
2017-09-18T22:49:22.776Z,98970.33
2017-09-18T22:51:48.953Z,98964.84
2017-09-18T22:54:15.239Z,98970.96
2017-09-18T22:56:41.461Z,98970.05
2017-09-18T22:59:07.691Z,98960.20
2017-09-18T23:01:33.908Z,98959.33
2017-09-18T23:04:00.149Z,98949.22
2017-09-18T23:06:26.382Z,98951.89
2017-09-18T23:08:52.616Z,98946.75
2017-09-18T23:11:18.843Z,98944.79
2017-09-18T23:13:45.070Z,98942.44
2017-09-18T23:16:11.286Z,98948.73
2017-09-18T23:18:37.440Z,98946.55
2017-09-18T23:21:03.647Z,98943.18
2017-09-18T23:23:29.875Z,98939.63
2017-09-18T23:25:56.117Z,98938.34
2017-09-18T23:28:22.340Z,98936.42
2017-09-18T23:30:48.585Z,98942.13
2017-09-18T23:33:14.795Z,98939.81
2017-09-18T23:35:41.021Z,98938.38
2017-09-18T23:38:07.250Z,98935.84
2017-09-18T23:40:33.493Z,98927.89
2017-09-18T23:42:59.713Z,98929.73
2017-09-18T23:45:25.944Z,98928.99
2017-09-18T23:47:52.192Z,98923.38
2017-09-18T23:50:18.416Z,98925.26
2017-09-18T23:52:44.643Z,98921.16
2017-09-18T23:55:10.859Z,98916.47
2017-09-18T23:57:37.094Z,98920.05
